VOZ696 YPPH-YMML
Flight info
| Callsign | VOZ696 |
|---|---|
| Flight time | N/A |
| Altitude | 37000 |
| Route | MEMUP Y53 ALAXO |
| Aircraft | B738/M-SAE3DGHIM1RWZ/LB1 |
Departure
| Time | 2026-05-07 06:55 |
|---|---|
| Airport | Perth International Airport (YPPH) |
Arrival
| Time | N/A |
|---|---|
| Airport | Melbourne Airport (YMML) |
| Time | Latitude | Longitude | Altitude | Speed | Heading |
|---|---|---|---|---|---|
| 2026-05-07 06:20 | -31.94177 | 115.97103 | 65 ft | 0 kts | 24° |
| 2026-05-07 06:47 | -31.94199 | 115.97093 | 56 ft | 4 kts | 24° |
| 2026-05-07 06:47 | -31.94218 | 115.97076 | 58 ft | 4 kts | 65° |
| 2026-05-07 06:47 | -31.94231 | 115.97049 | 60 ft | 4 kts | 39° |
| 2026-05-07 06:47 | -31.94253 | 115.97038 | 60 ft | 4 kts | 15° |
| 2026-05-07 06:48 | -31.94280 | 115.97030 | 61 ft | 4 kts | 13° |
| 2026-05-07 06:48 | -31.94292 | 115.97027 | 59 ft | 0 kts | 14° |
| 2026-05-07 06:51 | -31.94288 | 115.97028 | 57 ft | 4 kts | 14° |
| 2026-05-07 06:51 | -31.94250 | 115.97033 | 57 ft | 12 kts | 351° |
| 2026-05-07 06:51 | -31.94199 | 115.96916 | 57 ft | 9 kts | 287° |
| 2026-05-07 06:52 | -31.94191 | 115.96844 | 65 ft | 10 kts | 261° |
| 2026-05-07 06:52 | -31.94250 | 115.96793 | 65 ft | 23 kts | 194° |
| 2026-05-07 06:52 | -31.94457 | 115.96733 | 60 ft | 23 kts | 196° |
| 2026-05-07 06:52 | -31.94491 | 115.96581 | 56 ft | 22 kts | 284° |
| 2026-05-07 06:53 | -31.94464 | 115.96456 | 58 ft | 24 kts | 284° |
| 2026-05-07 06:53 | -31.94424 | 115.96263 | 60 ft | 26 kts | 283° |
| 2026-05-07 06:53 | -31.94276 | 115.96062 | 54 ft | 25 kts | 328° |
| 2026-05-07 06:53 | -31.94179 | 115.95993 | 48 ft | 25 kts | 329° |
| 2026-05-07 06:54 | -31.94079 | 115.95963 | 47 ft | 11 kts | 48° |
| 2026-05-07 06:54 | -31.94062 | 115.95996 | 49 ft | 10 kts | 58° |
| 2026-05-07 06:54 | -31.93939 | 115.96231 | 53 ft | 69 kts | 59° |
| 2026-05-07 06:54 | -31.93562 | 115.96968 | 54 ft | 137 kts | 60° |
| 2026-05-07 06:55 | -31.92989 | 115.98041 | 451 ft | 161 kts | 58° |
| 2026-05-07 06:55 | -31.92408 | 115.99140 | 1379 ft | 156 kts | 60° |
| 2026-05-07 06:55 | -31.91827 | 116.00300 | 1976 ft | 177 kts | 62° |
| 2026-05-07 06:55 | -31.91149 | 116.01661 | 2254 ft | 207 kts | 61° |
| 2026-05-07 06:56 | -31.90396 | 116.03156 | 2759 ft | 221 kts | 60° |
| 2026-05-07 06:56 | -31.89569 | 116.04786 | 3175 ft | 241 kts | 60° |
| 2026-05-07 06:56 | -31.88694 | 116.06497 | 4066 ft | 242 kts | 60° |
| 2026-05-07 06:56 | -31.87812 | 116.08217 | 4701 ft | 248 kts | 60° |
| 2026-05-07 06:57 | -31.86927 | 116.09939 | 4978 ft | 247 kts | 60° |
| 2026-05-07 06:57 | -31.86024 | 116.11698 | 5685 ft | 251 kts | 60° |
| 2026-05-07 06:57 | -31.85337 | 116.13596 | 6567 ft | 257 kts | 75° |
| 2026-05-07 06:57 | -31.84924 | 116.15656 | 7340 ft | 263 kts | 76° |
| 2026-05-07 06:58 | -31.84532 | 116.17767 | 8188 ft | 266 kts | 76° |
| 2026-05-07 06:58 | -31.84136 | 116.19900 | 9001 ft | 270 kts | 77° |
| 2026-05-07 06:58 | -31.83728 | 116.22078 | 9870 ft | 272 kts | 77° |
| 2026-05-07 06:58 | -31.83311 | 116.24273 | 10576 ft | 280 kts | 77° |
| 2026-05-07 06:59 | -31.82865 | 116.26601 | 10831 ft | 304 kts | 77° |
| 2026-05-07 06:59 | -31.82387 | 116.29081 | 11117 ft | 323 kts | 77° |
| 2026-05-07 06:59 | -31.81884 | 116.31684 | 11778 ft | 329 kts | 77° |
| 2026-05-07 06:59 | -31.81368 | 116.34341 | 12450 ft | 335 kts | 77° |
| 2026-05-07 07:00 | -31.80845 | 116.37026 | 13236 ft | 337 kts | 77° |
| 2026-05-07 07:00 | -31.80316 | 116.39737 | 13973 ft | 341 kts | 77° |
| 2026-05-07 07:00 | -31.79786 | 116.42444 | 14647 ft | 344 kts | 77° |
| 2026-05-07 07:00 | -31.79246 | 116.45202 | 15312 ft | 348 kts | 77° |
| 2026-05-07 07:01 | -31.78697 | 116.48001 | 15960 ft | 351 kts | 77° |
| 2026-05-07 07:01 | -31.78144 | 116.50816 | 16608 ft | 355 kts | 77° |
| 2026-05-07 07:01 | -31.77591 | 116.53629 | 17237 ft | 359 kts | 76° |
| 2026-05-07 07:01 | -31.77026 | 116.56503 | 17878 ft | 362 kts | 77° |
| 2026-05-07 07:02 | -31.76455 | 116.59401 | 18515 ft | 366 kts | 77° |
| 2026-05-07 07:02 | -31.75876 | 116.62329 | 19072 ft | 369 kts | 76° |
| 2026-05-07 07:02 | -31.75292 | 116.65286 | 19602 ft | 373 kts | 76° |
| 2026-05-07 07:02 | -31.74702 | 116.68261 | 20137 ft | 376 kts | 76° |
| 2026-05-07 07:03 | -31.74105 | 116.71268 | 20675 ft | 379 kts | 76° |
| 2026-05-07 07:03 | -31.73511 | 116.74258 | 21204 ft | 382 kts | 76° |
| 2026-05-07 07:03 | -31.72908 | 116.77293 | 21909 ft | 378 kts | 76° |
| 2026-05-07 07:03 | -31.72317 | 116.80263 | 22841 ft | 371 kts | 77° |
| 2026-05-07 07:04 | -31.71726 | 116.83232 | 23326 ft | 376 kts | 77° |
| 2026-05-07 07:04 | -31.71123 | 116.86251 | 23767 ft | 381 kts | 77° |
| 2026-05-07 07:04 | -31.70515 | 116.89295 | 24260 ft | 383 kts | 77° |
| 2026-05-07 07:04 | -31.69904 | 116.92352 | 24701 ft | 385 kts | 77° |
| 2026-05-07 07:05 | -31.69287 | 116.95435 | 25103 ft | 389 kts | 77° |
| 2026-05-07 07:05 | -31.68664 | 116.98542 | 25501 ft | 392 kts | 77° |
| 2026-05-07 07:05 | -31.68044 | 117.01631 | 25950 ft | 393 kts | 77° |
| 2026-05-07 07:05 | -31.67412 | 117.04772 | 26334 ft | 397 kts | 77° |
| 2026-05-07 07:06 | -31.66997 | 117.07974 | 26700 ft | 399 kts | 90° |
| 2026-05-07 07:06 | -31.67364 | 117.11215 | 27066 ft | 403 kts | 106° |
| 2026-05-07 07:06 | -31.68277 | 117.14339 | 27481 ft | 405 kts | 109° |
| 2026-05-07 07:06 | -31.69265 | 117.17416 | 27803 ft | 409 kts | 110° |
| 2026-05-07 07:07 | -31.70290 | 117.20536 | 28271 ft | 409 kts | 110° |
| 2026-05-07 07:07 | -31.71314 | 117.23664 | 28598 ft | 412 kts | 110° |
| 2026-05-07 07:07 | -31.72339 | 117.26829 | 28922 ft | 416 kts | 110° |
| 2026-05-07 07:07 | -31.73360 | 117.30023 | 29329 ft | 417 kts | 110° |
| 2026-05-07 07:08 | -31.74376 | 117.33227 | 29687 ft | 419 kts | 110° |
| 2026-05-07 07:08 | -31.75387 | 117.36437 | 29908 ft | 424 kts | 110° |
| 2026-05-07 07:08 | -31.76405 | 117.39686 | 30376 ft | 423 kts | 110° |
| 2026-05-07 07:08 | -31.77422 | 117.42936 | 30634 ft | 426 kts | 110° |
| 2026-05-07 07:09 | -31.78439 | 117.46190 | 30804 ft | 430 kts | 110° |
| 2026-05-07 07:09 | -31.79474 | 117.49504 | 31151 ft | 430 kts | 110° |
| 2026-05-07 07:09 | -31.80505 | 117.52811 | 31390 ft | 433 kts | 110° |
| 2026-05-07 07:09 | -31.81549 | 117.56163 | 31577 ft | 436 kts | 110° |
| 2026-05-07 07:10 | -31.82581 | 117.59477 | 31878 ft | 436 kts | 110° |
| 2026-05-07 07:10 | -31.83628 | 117.62845 | 32103 ft | 439 kts | 110° |
| 2026-05-07 07:10 | -31.84678 | 117.66224 | 32311 ft | 441 kts | 110° |
| 2026-05-07 07:10 | -31.85732 | 117.69620 | 32587 ft | 442 kts | 110° |
| 2026-05-07 07:11 | -31.86793 | 117.73041 | 32769 ft | 445 kts | 110° |
| 2026-05-07 07:11 | -31.87851 | 117.76459 | 33060 ft | 445 kts | 110° |
| 2026-05-07 07:11 | -31.88899 | 117.79847 | 33388 ft | 443 kts | 111° |
| 2026-05-07 07:11 | -31.89950 | 117.83253 | 33733 ft | 442 kts | 111° |
| 2026-05-07 07:12 | -31.91002 | 117.86662 | 34014 ft | 442 kts | 111° |
| 2026-05-07 07:12 | -31.92053 | 117.90070 | 34248 ft | 443 kts | 111° |
| 2026-05-07 07:12 | -31.93103 | 117.93476 | 34510 ft | 443 kts | 111° |
| 2026-05-07 07:12 | -31.94140 | 117.96846 | 34697 ft | 444 kts | 111° |
| 2026-05-07 07:13 | -31.95193 | 118.00273 | 34892 ft | 445 kts | 111° |
| 2026-05-07 07:13 | -31.96245 | 118.03702 | 35100 ft | 445 kts | 111° |
| 2026-05-07 07:13 | -31.97299 | 118.07139 | 35295 ft | 446 kts | 111° |
| 2026-05-07 07:13 | -31.98352 | 118.10577 | 35495 ft | 446 kts | 111° |
| 2026-05-07 07:14 | -31.99408 | 118.14030 | 35693 ft | 447 kts | 111° |
| 2026-05-07 07:14 | -32.00460 | 118.17476 | 35886 ft | 447 kts | 111° |
| 2026-05-07 07:14 | -32.01514 | 118.20928 | 36063 ft | 448 kts | 111° |
| 2026-05-07 07:14 | -32.02557 | 118.24348 | 36256 ft | 448 kts | 111° |
| 2026-05-07 07:15 | -32.03611 | 118.27812 | 36444 ft | 449 kts | 111° |
| 2026-05-07 07:15 | -32.04665 | 118.31275 | 36644 ft | 449 kts | 111° |
| 2026-05-07 07:15 | -32.05718 | 118.34737 | 36833 ft | 449 kts | 111° |
| 2026-05-07 07:15 | -32.06786 | 118.38215 | 36996 ft | 449 kts | 114° |
| 2026-05-07 07:16 | -32.08301 | 118.41418 | 37126 ft | 446 kts | 129° |
| 2026-05-07 07:16 | -32.10227 | 118.44222 | 37334 ft | 444 kts | 131° |
| 2026-05-07 07:16 | -32.14229 | 118.49781 | 37438 ft | 443 kts | 132° |
| 2026-05-07 07:17 | -32.18230 | 118.55371 | 37449 ft | 446 kts | 131° |
| 2026-05-07 07:17 | -32.22195 | 118.61005 | 37455 ft | 449 kts | 131° |
| 2026-05-07 07:18 | -32.26163 | 118.66698 | 37450 ft | 451 kts | 131° |
| 2026-05-07 07:18 | -32.30152 | 118.72440 | 37452 ft | 451 kts | 131° |
| 2026-05-07 07:19 | -32.34131 | 118.78174 | 37443 ft | 450 kts | 131° |
| 2026-05-07 07:19 | -32.38095 | 118.83894 | 37448 ft | 448 kts | 131° |
| 2026-05-07 07:20 | -32.42013 | 118.89556 | 37456 ft | 445 kts | 131° |
| 2026-05-07 07:20 | -32.45937 | 118.95237 | 37458 ft | 443 kts | 130° |
| 2026-05-07 07:21 | -32.49813 | 119.00855 | 37464 ft | 441 kts | 131° |
| 2026-05-07 07:21 | -32.53695 | 119.06490 | 37468 ft | 439 kts | 130° |
| 2026-05-07 07:22 | -32.57551 | 119.12095 | 37462 ft | 438 kts | 131° |
| 2026-05-07 07:22 | -32.61387 | 119.17683 | 37469 ft | 438 kts | 131° |
| 2026-05-07 07:23 | -32.65246 | 119.23307 | 37468 ft | 438 kts | 130° |
| 2026-05-07 07:23 | -32.69097 | 119.28929 | 37472 ft | 439 kts | 130° |
| 2026-05-07 07:24 | -32.72924 | 119.34526 | 37478 ft | 440 kts | 130° |
| 2026-05-07 07:24 | -32.76780 | 119.40176 | 37481 ft | 441 kts | 130° |
| 2026-05-07 07:25 | -32.82594 | 119.48704 | 37483 ft | 442 kts | 130° |
| 2026-05-07 07:26 | -32.86446 | 119.54368 | 37480 ft | 443 kts | 130° |
| 2026-05-07 07:26 | -32.90325 | 119.60078 | 37485 ft | 443 kts | 130° |
| 2026-05-07 07:27 | -32.94196 | 119.65788 | 37487 ft | 443 kts | 130° |
| 2026-05-07 07:27 | -32.98050 | 119.71480 | 37494 ft | 443 kts | 130° |
| 2026-05-07 07:28 | -33.01919 | 119.77203 | 37492 ft | 442 kts | 130° |
| 2026-05-07 07:28 | -33.05778 | 119.82921 | 37491 ft | 442 kts | 130° |
| 2026-05-07 07:29 | -33.09602 | 119.88599 | 37497 ft | 441 kts | 130° |
| 2026-05-07 07:29 | -33.13446 | 119.94311 | 37499 ft | 440 kts | 130° |
| 2026-05-07 07:30 | -33.17273 | 120.00006 | 37499 ft | 439 kts | 130° |
| 2026-05-07 07:30 | -33.21093 | 120.05703 | 37500 ft | 439 kts | 130° |
| 2026-05-07 07:31 | -33.24890 | 120.11373 | 37508 ft | 438 kts | 130° |
| 2026-05-07 07:31 | -33.28703 | 120.17077 | 37510 ft | 438 kts | 130° |
| 2026-05-07 07:32 | -33.32487 | 120.22745 | 37509 ft | 438 kts | 130° |
| 2026-05-07 07:32 | -33.36283 | 120.28439 | 37506 ft | 438 kts | 130° |
| 2026-05-07 07:33 | -33.40079 | 120.34142 | 37516 ft | 438 kts | 130° |
| 2026-05-07 07:33 | -33.43237 | 120.38893 | 37515 ft | 438 kts | 129° |
| 2026-05-07 07:34 | -33.47650 | 120.45545 | 37519 ft | 438 kts | 129° |
| 2026-05-07 07:34 | -33.51454 | 120.51286 | 37523 ft | 439 kts | 129° |
| 2026-05-07 07:35 | -33.55230 | 120.56997 | 37521 ft | 439 kts | 129° |
| 2026-05-07 07:35 | -33.59024 | 120.62743 | 37520 ft | 439 kts | 129° |
| 2026-05-07 07:36 | -33.62800 | 120.68469 | 37522 ft | 439 kts | 129° |
| 2026-05-07 07:36 | -33.66590 | 120.74229 | 37524 ft | 439 kts | 129° |
| 2026-05-07 07:37 | -33.70379 | 120.79996 | 37522 ft | 439 kts | 129° |
| 2026-05-07 07:37 | -33.74135 | 120.85719 | 37531 ft | 438 kts | 129° |
| 2026-05-07 07:37 | -33.75848 | 120.88741 | 37509 ft | 440 kts | 116° |
| 2026-05-07 07:38 | -33.77043 | 120.92128 | 37554 ft | 439 kts | 113° |
| 2026-05-07 07:38 | -33.79292 | 120.98969 | 37537 ft | 439 kts | 113° |
| 2026-05-07 07:39 | -33.81535 | 121.05771 | 37535 ft | 439 kts | 113° |
| 2026-05-07 07:39 | -33.83431 | 121.11439 | 37532 ft | 439 kts | 114° |
| 2026-05-07 07:40 | -33.85727 | 121.18252 | 37538 ft | 438 kts | 114° |
| 2026-05-07 07:40 | -33.88012 | 121.25028 | 37532 ft | 438 kts | 114° |
| 2026-05-07 07:41 | -33.90303 | 121.31837 | 37539 ft | 437 kts | 113° |
| 2026-05-07 07:41 | -33.92583 | 121.38630 | 37541 ft | 437 kts | 114° |
| 2026-05-07 07:42 | -33.94861 | 121.45429 | 37544 ft | 437 kts | 113° |
| 2026-05-07 07:42 | -33.97119 | 121.52188 | 37547 ft | 437 kts | 113° |
| 2026-05-07 07:43 | -33.99383 | 121.58980 | 37547 ft | 436 kts | 113° |
| 2026-05-07 07:43 | -34.01648 | 121.65785 | 37552 ft | 436 kts | 113° |
| 2026-05-07 07:44 | -34.03895 | 121.72556 | 37550 ft | 436 kts | 113° |
| 2026-05-07 07:44 | -34.06152 | 121.79371 | 37553 ft | 437 kts | 113° |
| 2026-05-07 07:45 | -34.08405 | 121.86184 | 37553 ft | 437 kts | 113° |
| 2026-05-07 07:45 | -34.10641 | 121.92965 | 37555 ft | 437 kts | 113° |
| 2026-05-07 07:46 | -34.12880 | 121.99770 | 37564 ft | 437 kts | 113° |
| 2026-05-07 07:46 | -34.15127 | 122.06614 | 37563 ft | 437 kts | 113° |
| 2026-05-07 07:47 | -34.17354 | 122.13410 | 37564 ft | 437 kts | 113° |
| 2026-05-07 07:47 | -34.19591 | 122.20254 | 37550 ft | 437 kts | 113° |
| 2026-05-07 07:48 | -34.21825 | 122.27105 | 37554 ft | 437 kts | 113° |
| 2026-05-07 07:48 | -34.24052 | 122.33950 | 37570 ft | 437 kts | 113° |
| 2026-05-07 07:49 | -34.26260 | 122.40750 | 37573 ft | 437 kts | 113° |
| 2026-05-07 07:49 | -34.28477 | 122.47593 | 37564 ft | 437 kts | 113° |
| 2026-05-07 07:50 | -34.30687 | 122.54430 | 37564 ft | 436 kts | 113° |
| 2026-05-07 07:50 | -34.32894 | 122.61272 | 37565 ft | 436 kts | 113° |
| 2026-05-07 07:51 | -34.35098 | 122.68120 | 37564 ft | 436 kts | 113° |
| 2026-05-07 07:51 | -34.37280 | 122.74917 | 37573 ft | 435 kts | 113° |
| 2026-05-07 07:52 | -34.39474 | 122.81767 | 37563 ft | 435 kts | 113° |
| 2026-05-07 07:52 | -34.41646 | 122.88560 | 37568 ft | 434 kts | 112° |
| 2026-05-07 07:53 | -34.43828 | 122.95403 | 37566 ft | 434 kts | 112° |
| 2026-05-07 07:53 | -34.46001 | 123.02233 | 37574 ft | 434 kts | 112° |
| 2026-05-07 07:54 | -34.48158 | 123.09028 | 37577 ft | 434 kts | 112° |
| 2026-05-07 07:54 | -34.50328 | 123.15879 | 37573 ft | 434 kts | 112° |
| 2026-05-07 07:55 | -34.52474 | 123.22670 | 37580 ft | 433 kts | 112° |
| 2026-05-07 07:55 | -34.54628 | 123.29502 | 37583 ft | 433 kts | 112° |
| 2026-05-07 07:56 | -34.56781 | 123.36344 | 37582 ft | 433 kts | 112° |
| 2026-05-07 07:56 | -34.58916 | 123.43146 | 37582 ft | 433 kts | 112° |
| 2026-05-07 07:57 | -34.61060 | 123.49993 | 37582 ft | 433 kts | 112° |
| 2026-05-07 07:57 | -34.63198 | 123.56836 | 37585 ft | 433 kts | 112° |
| 2026-05-07 07:58 | -34.65322 | 123.63651 | 37589 ft | 433 kts | 112° |
| 2026-05-07 07:58 | -34.67453 | 123.70501 | 37588 ft | 432 kts | 112° |
| 2026-05-07 07:59 | -34.69564 | 123.77307 | 37588 ft | 432 kts | 112° |
| 2026-05-07 07:59 | -34.71687 | 123.84164 | 37595 ft | 432 kts | 112° |
| 2026-05-07 08:00 | -34.73800 | 123.91007 | 37588 ft | 432 kts | 112° |
| 2026-05-07 08:00 | -34.75898 | 123.97816 | 37595 ft | 431 kts | 112° |
| 2026-05-07 08:01 | -34.78000 | 124.04653 | 37600 ft | 431 kts | 112° |
| 2026-05-07 08:01 | -34.80097 | 124.11491 | 37595 ft | 431 kts | 112° |
| 2026-05-07 08:02 | -34.82178 | 124.18290 | 37598 ft | 431 kts | 112° |
| 2026-05-07 08:02 | -34.84267 | 124.25136 | 37599 ft | 431 kts | 112° |
| 2026-05-07 08:03 | -34.86350 | 124.31975 | 37604 ft | 430 kts | 112° |
| 2026-05-07 08:03 | -34.88422 | 124.38793 | 37601 ft | 430 kts | 112° |
| 2026-05-07 08:04 | -34.90500 | 124.45648 | 37600 ft | 430 kts | 112° |
| 2026-05-07 08:04 | -34.92570 | 124.52495 | 37606 ft | 430 kts | 112° |
| 2026-05-07 08:05 | -34.94623 | 124.59300 | 37604 ft | 430 kts | 112° |
| 2026-05-07 08:05 | -34.96685 | 124.66151 | 37606 ft | 430 kts | 112° |
| 2026-05-07 08:06 | -34.98748 | 124.73021 | 37604 ft | 430 kts | 112° |
| 2026-05-07 08:06 | -35.00804 | 124.79886 | 37603 ft | 431 kts | 112° |
| 2026-05-07 08:07 | -35.02843 | 124.86710 | 37605 ft | 431 kts | 112° |
| 2026-05-07 08:07 | -35.04900 | 124.93609 | 37605 ft | 431 kts | 112° |
| 2026-05-07 08:08 | -35.06931 | 125.00466 | 37608 ft | 431 kts | 111° |
| 2026-05-07 08:08 | -35.08713 | 125.07473 | 37608 ft | 432 kts | 108° |
| 2026-05-07 08:09 | -35.10372 | 125.14519 | 37610 ft | 432 kts | 108° |
| 2026-05-07 08:09 | -35.12031 | 125.21530 | 37613 ft | 432 kts | 108° |
| 2026-05-07 08:10 | -35.13717 | 125.28575 | 37612 ft | 431 kts | 108° |
| 2026-05-07 08:10 | -35.15408 | 125.35621 | 37609 ft | 431 kts | 108° |
| 2026-05-07 08:11 | -35.17096 | 125.42661 | 37617 ft | 431 kts | 108° |
| 2026-05-07 08:11 | -35.18767 | 125.49654 | 37613 ft | 431 kts | 108° |
| 2026-05-07 08:12 | -35.20443 | 125.56688 | 37612 ft | 431 kts | 108° |
| 2026-05-07 08:12 | -35.22118 | 125.63737 | 37616 ft | 431 kts | 108° |
| 2026-05-07 08:13 | -35.23787 | 125.70782 | 37613 ft | 431 kts | 108° |
| 2026-05-07 08:13 | -35.25442 | 125.77790 | 37612 ft | 430 kts | 108° |
| 2026-05-07 08:14 | -35.27105 | 125.84848 | 37619 ft | 430 kts | 108° |
| 2026-05-07 08:14 | -35.28750 | 125.91852 | 37617 ft | 430 kts | 108° |
| 2026-05-07 08:15 | -35.30400 | 125.98899 | 37618 ft | 430 kts | 108° |
| 2026-05-07 08:15 | -35.32048 | 126.05958 | 37615 ft | 430 kts | 108° |
| 2026-05-07 08:16 | -35.33682 | 126.12975 | 37615 ft | 430 kts | 108° |
| 2026-05-07 08:16 | -35.35322 | 126.20036 | 37617 ft | 430 kts | 108° |
| 2026-05-07 08:17 | -35.36956 | 126.27095 | 37618 ft | 430 kts | 108° |
| 2026-05-07 08:17 | -35.38579 | 126.34127 | 37618 ft | 430 kts | 108° |
| 2026-05-07 08:18 | -35.40207 | 126.41201 | 37615 ft | 430 kts | 107° |
| 2026-05-07 08:18 | -35.41831 | 126.48279 | 37617 ft | 430 kts | 107° |
| 2026-05-07 08:19 | -35.43449 | 126.55350 | 37619 ft | 430 kts | 107° |
| 2026-05-07 08:19 | -35.45053 | 126.62383 | 37617 ft | 431 kts | 107° |
| 2026-05-07 08:20 | -35.46670 | 126.69488 | 37616 ft | 431 kts | 107° |
| 2026-05-07 08:20 | -35.48267 | 126.76532 | 37620 ft | 431 kts | 107° |
| 2026-05-07 08:21 | -35.49870 | 126.83624 | 37621 ft | 431 kts | 107° |
| 2026-05-07 08:21 | -35.51468 | 126.90713 | 37619 ft | 430 kts | 107° |
| 2026-05-07 08:22 | -35.53062 | 126.97806 | 37623 ft | 430 kts | 107° |
| 2026-05-07 08:22 | -35.54641 | 127.04852 | 37619 ft | 430 kts | 107° |
| 2026-05-07 08:23 | -35.56228 | 127.11953 | 37620 ft | 430 kts | 107° |
| 2026-05-07 08:23 | -35.57808 | 127.19047 | 37620 ft | 430 kts | 107° |
| 2026-05-07 08:24 | -35.59384 | 127.26145 | 37623 ft | 430 kts | 107° |
| 2026-05-07 08:24 | -35.60947 | 127.33205 | 37615 ft | 430 kts | 107° |
| 2026-05-07 08:25 | -35.62516 | 127.40314 | 37615 ft | 430 kts | 107° |
| 2026-05-07 08:25 | -35.64071 | 127.47379 | 37617 ft | 430 kts | 107° |
| 2026-05-07 08:26 | -35.66405 | 127.58027 | 37616 ft | 430 kts | 107° |
| 2026-05-07 08:26 | -35.67961 | 127.65152 | 37616 ft | 430 kts | 106° |
| 2026-05-07 08:27 | -35.69251 | 127.71080 | 37615 ft | 430 kts | 106° |
| 2026-05-07 08:27 | -35.71048 | 127.79356 | 37621 ft | 430 kts | 106° |
| 2026-05-07 08:28 | -35.72330 | 127.85283 | 37623 ft | 431 kts | 106° |
| 2026-05-07 08:28 | -35.73871 | 127.92421 | 37616 ft | 431 kts | 106° |
| 2026-05-07 08:29 | -35.75407 | 127.99562 | 37619 ft | 431 kts | 106° |
| 2026-05-07 08:29 | -35.76930 | 128.06660 | 37612 ft | 431 kts | 106° |
| 2026-05-07 08:30 | -35.78458 | 128.13800 | 37622 ft | 431 kts | 106° |
| 2026-05-07 08:30 | -35.79984 | 128.20949 | 37612 ft | 431 kts | 106° |
| 2026-05-07 08:31 | -35.81497 | 128.28068 | 37614 ft | 431 kts | 106° |
| 2026-05-07 08:31 | -35.83016 | 128.35235 | 37614 ft | 431 kts | 106° |
| 2026-05-07 08:32 | -35.84519 | 128.42349 | 37621 ft | 431 kts | 106° |
| 2026-05-07 08:32 | -35.86027 | 128.49506 | 37608 ft | 431 kts | 106° |
| 2026-05-07 08:33 | -35.87533 | 128.56682 | 37610 ft | 431 kts | 105° |
| 2026-05-07 08:33 | -35.89025 | 128.63810 | 37612 ft | 432 kts | 105° |
| 2026-05-07 08:34 | -35.90521 | 128.70982 | 37600 ft | 432 kts | 105° |
| 2026-05-07 08:34 | -35.92016 | 128.78170 | 37606 ft | 432 kts | 105° |
| 2026-05-07 08:35 | -35.93506 | 128.85364 | 37611 ft | 432 kts | 105° |
| 2026-05-07 08:35 | -35.94981 | 128.92502 | 37604 ft | 432 kts | 105° |
| 2026-05-07 08:36 | -35.96467 | 128.99717 | 37601 ft | 432 kts | 105° |
| 2026-05-07 08:36 | -35.97938 | 129.06887 | 37597 ft | 432 kts | 105° |
| 2026-05-07 08:37 | -35.99415 | 129.14109 | 37606 ft | 432 kts | 105° |
| 2026-05-07 08:37 | -36.00875 | 129.21266 | 37608 ft | 432 kts | 105° |
| 2026-05-07 08:38 | -36.02345 | 129.28500 | 37612 ft | 432 kts | 105° |
| 2026-05-07 08:38 | -36.03798 | 129.35673 | 37611 ft | 433 kts | 105° |
| 2026-05-07 08:39 | -36.05257 | 129.42901 | 37599 ft | 433 kts | 105° |
| 2026-05-07 08:39 | -36.06710 | 129.50123 | 37595 ft | 433 kts | 105° |
| 2026-05-07 08:40 | -36.08162 | 129.57364 | 37609 ft | 433 kts | 105° |
| 2026-05-07 08:40 | -36.09600 | 129.64559 | 37599 ft | 433 kts | 105° |
| 2026-05-07 08:41 | -36.11042 | 129.71801 | 37594 ft | 433 kts | 105° |
| 2026-05-07 08:41 | -36.12479 | 129.79041 | 37593 ft | 433 kts | 105° |
| 2026-05-07 08:42 | -36.13903 | 129.86240 | 37598 ft | 433 kts | 105° |
| 2026-05-07 08:42 | -36.15326 | 129.93456 | 37596 ft | 433 kts | 105° |
| 2026-05-07 08:43 | -36.16753 | 130.00719 | 37596 ft | 433 kts | 105° |
| 2026-05-07 08:43 | -36.18176 | 130.07988 | 37593 ft | 433 kts | 105° |
| 2026-05-07 08:44 | -36.19584 | 130.15202 | 37599 ft | 434 kts | 105° |
| 2026-05-07 08:44 | -36.20993 | 130.22453 | 37600 ft | 434 kts | 105° |
| 2026-05-07 08:45 | -36.22405 | 130.29735 | 37593 ft | 434 kts | 105° |
| 2026-05-07 08:45 | -36.23806 | 130.36992 | 37586 ft | 435 kts | 105° |
| 2026-05-07 08:46 | -36.25212 | 130.44294 | 37589 ft | 435 kts | 105° |
| 2026-05-07 08:46 | -36.26604 | 130.51555 | 37603 ft | 435 kts | 105° |
| 2026-05-07 08:47 | -36.28002 | 130.58870 | 37596 ft | 435 kts | 105° |
| 2026-05-07 08:47 | -36.29386 | 130.66144 | 37586 ft | 436 kts | 105° |
| 2026-05-07 08:48 | -36.30777 | 130.73475 | 37584 ft | 436 kts | 105° |
| 2026-05-07 08:48 | -36.32167 | 130.80824 | 37585 ft | 436 kts | 105° |
| 2026-05-07 08:49 | -36.33540 | 130.88111 | 37590 ft | 437 kts | 105° |
| 2026-05-07 08:49 | -36.34922 | 130.95477 | 37579 ft | 437 kts | 105° |
| 2026-05-07 08:50 | -36.36290 | 131.02792 | 37581 ft | 437 kts | 105° |
| 2026-05-07 08:50 | -36.37663 | 131.10154 | 37577 ft | 437 kts | 105° |
| 2026-05-07 08:51 | -36.39032 | 131.17527 | 37576 ft | 437 kts | 105° |
| 2026-05-07 08:51 | -36.40385 | 131.24844 | 37575 ft | 438 kts | 105° |
| 2026-05-07 08:52 | -36.41744 | 131.32223 | 37578 ft | 438 kts | 105° |
| 2026-05-07 08:52 | -36.43101 | 131.39609 | 37579 ft | 438 kts | 105° |
| 2026-05-07 08:53 | -36.44442 | 131.46936 | 37572 ft | 438 kts | 105° |
| 2026-05-07 08:53 | -36.45788 | 131.54321 | 37570 ft | 438 kts | 104° |
| 2026-05-07 08:54 | -36.47132 | 131.61726 | 37571 ft | 438 kts | 104° |
| 2026-05-07 08:54 | -36.48461 | 131.69075 | 37573 ft | 438 kts | 104° |
| 2026-05-07 08:55 | -36.49793 | 131.76474 | 37566 ft | 438 kts | 105° |
| 2026-05-07 08:55 | -36.51118 | 131.83851 | 37568 ft | 439 kts | 104° |
| 2026-05-07 08:56 | -36.52443 | 131.91265 | 37562 ft | 439 kts | 104° |
| 2026-05-07 08:56 | -36.53758 | 131.98648 | 37564 ft | 439 kts | 104° |
| 2026-05-07 08:57 | -36.55075 | 132.06066 | 37563 ft | 439 kts | 104° |
| 2026-05-07 08:57 | -36.56390 | 132.13506 | 37565 ft | 439 kts | 104° |
| 2026-05-07 08:58 | -36.57699 | 132.20941 | 37560 ft | 440 kts | 104° |
| 2026-05-07 08:58 | -36.59004 | 132.28382 | 37562 ft | 440 kts | 104° |
| 2026-05-07 08:59 | -36.60299 | 132.35795 | 37560 ft | 440 kts | 104° |
| 2026-05-07 08:59 | -36.61601 | 132.43270 | 37559 ft | 441 kts | 104° |
| 2026-05-07 09:00 | -36.62887 | 132.50692 | 37553 ft | 441 kts | 104° |
| 2026-05-07 09:00 | -36.64181 | 132.58186 | 37556 ft | 441 kts | 104° |
| 2026-05-07 09:01 | -36.65468 | 132.65670 | 37555 ft | 442 kts | 104° |
| 2026-05-07 09:01 | -36.66746 | 132.73126 | 37551 ft | 442 kts | 104° |
| 2026-05-07 09:02 | -36.68029 | 132.80646 | 37550 ft | 443 kts | 104° |
| 2026-05-07 09:02 | -36.69300 | 132.88122 | 37548 ft | 443 kts | 104° |
| 2026-05-07 09:03 | -36.70574 | 132.95650 | 37546 ft | 443 kts | 104° |
| 2026-05-07 09:03 | -36.71836 | 133.03136 | 37545 ft | 443 kts | 104° |
| 2026-05-07 09:04 | -36.73099 | 133.10661 | 37546 ft | 443 kts | 104° |
| 2026-05-07 09:04 | -36.74361 | 133.18205 | 37539 ft | 443 kts | 104° |
| 2026-05-07 09:05 | -36.75610 | 133.25705 | 37537 ft | 443 kts | 104° |
| 2026-05-07 09:05 | -36.76860 | 133.33247 | 37539 ft | 444 kts | 104° |
| 2026-05-07 09:06 | -36.78110 | 133.40814 | 37536 ft | 444 kts | 104° |
| 2026-05-07 09:06 | -36.79344 | 133.48313 | 37535 ft | 444 kts | 104° |
| 2026-05-07 09:07 | -36.80580 | 133.55858 | 37537 ft | 444 kts | 104° |
| 2026-05-07 09:07 | -36.81813 | 133.63421 | 37533 ft | 444 kts | 104° |
| 2026-05-07 09:08 | -36.83036 | 133.70949 | 37533 ft | 444 kts | 104° |
| 2026-05-07 09:08 | -36.84261 | 133.78525 | 37528 ft | 444 kts | 104° |
| 2026-05-07 09:09 | -36.85480 | 133.86092 | 37529 ft | 444 kts | 104° |
| 2026-05-07 09:09 | -36.86688 | 133.93624 | 37526 ft | 445 kts | 104° |
| 2026-05-07 09:10 | -36.87900 | 134.01215 | 37526 ft | 445 kts | 104° |
| 2026-05-07 09:10 | -36.89108 | 134.08814 | 37523 ft | 445 kts | 104° |
| 2026-05-07 09:11 | -36.90304 | 134.16370 | 37522 ft | 445 kts | 103° |
| 2026-05-07 09:11 | -36.91505 | 134.23987 | 37525 ft | 446 kts | 103° |
| 2026-05-07 09:12 | -36.92699 | 134.31594 | 37521 ft | 446 kts | 103° |
| 2026-05-07 09:12 | -36.93883 | 134.39173 | 37519 ft | 446 kts | 103° |
| 2026-05-07 09:13 | -36.95070 | 134.46801 | 37519 ft | 446 kts | 103° |
| 2026-05-07 09:13 | -36.96251 | 134.54430 | 37517 ft | 446 kts | 103° |
| 2026-05-07 09:14 | -36.97422 | 134.62020 | 37514 ft | 447 kts | 103° |
| 2026-05-07 09:14 | -36.98597 | 134.69675 | 37512 ft | 447 kts | 103° |
| 2026-05-07 09:15 | -36.99760 | 134.77283 | 37519 ft | 447 kts | 103° |
| 2026-05-07 09:15 | -37.00926 | 134.84948 | 37508 ft | 447 kts | 103° |
| 2026-05-07 09:16 | -37.02080 | 134.92568 | 37506 ft | 447 kts | 103° |
| 2026-05-07 09:16 | -37.03229 | 135.00188 | 37512 ft | 447 kts | 103° |
| 2026-05-07 09:17 | -37.04382 | 135.07853 | 37509 ft | 447 kts | 103° |
| 2026-05-07 09:17 | -37.05524 | 135.15473 | 37500 ft | 447 kts | 103° |
| 2026-05-07 09:18 | -37.06667 | 135.23133 | 37497 ft | 447 kts | 103° |
| 2026-05-07 09:18 | -37.07808 | 135.30817 | 37499 ft | 448 kts | 103° |
| 2026-05-07 09:19 | -37.08942 | 135.38485 | 37497 ft | 448 kts | 103° |
| 2026-05-07 09:19 | -37.09881 | 135.44871 | 37497 ft | 448 kts | 103° |
| 2026-05-07 09:20 | -37.11008 | 135.52564 | 37496 ft | 448 kts | 103° |
| 2026-05-07 09:20 | -37.12123 | 135.60207 | 37492 ft | 448 kts | 103° |
| 2026-05-07 09:21 | -37.13240 | 135.67900 | 37492 ft | 448 kts | 103° |
| 2026-05-07 09:21 | -37.14354 | 135.75612 | 37487 ft | 449 kts | 103° |
| 2026-05-07 09:22 | -37.15457 | 135.83280 | 37487 ft | 449 kts | 103° |
| 2026-05-07 09:22 | -37.16561 | 135.91000 | 37483 ft | 449 kts | 103° |
| 2026-05-07 09:23 | -37.17655 | 135.98682 | 37483 ft | 449 kts | 103° |
| 2026-05-07 09:23 | -37.18750 | 136.06408 | 37478 ft | 449 kts | 103° |
| 2026-05-07 09:24 | -37.19832 | 136.14080 | 37480 ft | 449 kts | 103° |
| 2026-05-07 09:24 | -37.20918 | 136.21821 | 37481 ft | 449 kts | 103° |
| 2026-05-07 09:25 | -37.21998 | 136.29550 | 37478 ft | 449 kts | 103° |
| 2026-05-07 09:25 | -37.23074 | 136.37293 | 37477 ft | 450 kts | 103° |
| 2026-05-07 09:26 | -37.24139 | 136.44996 | 37475 ft | 450 kts | 103° |
| 2026-05-07 09:26 | -37.25205 | 136.52745 | 37471 ft | 450 kts | 103° |
| 2026-05-07 09:27 | -37.26260 | 136.60454 | 37468 ft | 450 kts | 103° |
| 2026-05-07 09:28 | -37.27843 | 136.72088 | 37467 ft | 451 kts | 102° |
| 2026-05-07 09:28 | -37.28893 | 136.79856 | 37467 ft | 451 kts | 102° |
| 2026-05-07 09:29 | -37.29937 | 136.87624 | 37463 ft | 451 kts | 102° |
| 2026-05-07 09:29 | -37.30973 | 136.95366 | 37461 ft | 451 kts | 102° |
| 2026-05-07 09:30 | -37.32010 | 137.03153 | 37465 ft | 452 kts | 102° |
| 2026-05-07 09:30 | -37.33036 | 137.10906 | 37458 ft | 452 kts | 102° |
| 2026-05-07 09:31 | -37.34065 | 137.18717 | 37453 ft | 452 kts | 102° |
| 2026-05-07 09:31 | -37.35089 | 137.26530 | 37458 ft | 453 kts | 102° |
| 2026-05-07 09:32 | -37.36102 | 137.34303 | 37451 ft | 453 kts | 102° |
| 2026-05-07 09:32 | -37.37116 | 137.42126 | 37449 ft | 453 kts | 102° |
| 2026-05-07 09:33 | -37.38126 | 137.49959 | 37451 ft | 453 kts | 102° |
| 2026-05-07 09:33 | -37.39125 | 137.57750 | 37445 ft | 454 kts | 102° |
| 2026-05-07 09:34 | -37.40127 | 137.65602 | 37441 ft | 454 kts | 102° |
| 2026-05-07 09:34 | -37.41124 | 137.73460 | 37442 ft | 454 kts | 102° |
| 2026-05-07 09:35 | -37.42115 | 137.81316 | 37436 ft | 455 kts | 102° |
| 2026-05-07 09:35 | -37.43096 | 137.89134 | 37437 ft | 455 kts | 102° |
| 2026-05-07 09:36 | -37.44080 | 137.97019 | 37437 ft | 455 kts | 102° |
| 2026-05-07 09:36 | -37.45052 | 138.04853 | 37433 ft | 456 kts | 102° |
| 2026-05-07 09:37 | -37.46029 | 138.12774 | 37431 ft | 456 kts | 102° |
| 2026-05-07 09:37 | -37.46992 | 138.20623 | 37429 ft | 456 kts | 102° |
| 2026-05-07 09:38 | -37.47959 | 138.28536 | 37424 ft | 457 kts | 102° |
| 2026-05-07 09:38 | -37.48917 | 138.36457 | 37421 ft | 457 kts | 102° |
| 2026-05-07 09:39 | -37.49851 | 138.44346 | 37416 ft | 457 kts | 102° |
| 2026-05-07 09:39 | -37.50778 | 138.52245 | 37417 ft | 458 kts | 102° |
| 2026-05-07 09:40 | -37.51706 | 138.60187 | 37404 ft | 458 kts | 102° |
| 2026-05-07 09:40 | -37.52633 | 138.68151 | 37415 ft | 458 kts | 102° |
| 2026-05-07 09:41 | -37.53554 | 138.76119 | 37421 ft | 459 kts | 102° |
| 2026-05-07 09:41 | -37.54465 | 138.84034 | 37412 ft | 459 kts | 102° |
| 2026-05-07 09:42 | -37.55377 | 138.92016 | 37402 ft | 460 kts | 101° |
| 2026-05-07 09:42 | -37.56285 | 139.00016 | 37401 ft | 460 kts | 101° |
| 2026-05-07 09:43 | -37.57188 | 139.08016 | 37393 ft | 461 kts | 101° |
| 2026-05-07 09:43 | -37.58086 | 139.16022 | 37401 ft | 461 kts | 101° |
| 2026-05-07 09:44 | -37.58975 | 139.23995 | 37389 ft | 462 kts | 101° |
| 2026-05-07 09:44 | -37.59571 | 139.29371 | 37396 ft | 462 kts | 101° |
| 2026-05-07 09:45 | -37.60309 | 139.36055 | 37394 ft | 462 kts | 101° |